createdAt,value
2019-04-10T00:01:20.555Z,29.95
2019-04-10T00:03:52.529Z,30.30
2019-04-10T00:06:23.722Z,31.37
2019-04-10T00:08:54.746Z,31.20
2019-04-10T00:11:26.968Z,31.48
2019-04-10T00:13:58.742Z,31.17
2019-04-10T00:16:29.887Z,32.42
2019-04-10T00:19:00.505Z,31.70
2019-04-10T00:21:31.373Z,34.63
2019-04-10T00:24:02.616Z,33.15
2019-04-10T00:26:35.195Z,33.40
2019-04-10T00:29:06.420Z,31.62
2019-04-10T00:31:38.065Z,33.35
2019-04-10T00:34:10.169Z,32.23
2019-04-10T00:36:41.544Z,33.30
2019-04-10T00:39:12.631Z,31.70
2019-04-10T00:41:44.258Z,33.30
2019-04-10T00:44:16.435Z,33.18
2019-04-10T00:46:48.689Z,33.53
2019-04-10T00:49:20.179Z,33.02
2019-04-10T00:51:52.021Z,33.38
2019-04-10T00:54:23.714Z,32.33
2019-04-10T00:56:54.964Z,33.67
2019-04-10T00:59:26.231Z,33.00
2019-04-10T01:01:56.931Z,32.83
2019-04-10T01:04:28.430Z,32.97
2019-04-10T01:07:00.158Z,32.30
2019-04-10T01:09:31.337Z,32.58
2019-04-10T01:12:02.081Z,32.20
2019-04-10T01:14:33.940Z,33.28
2019-04-10T01:17:04.714Z,32.15
2019-04-10T01:19:36.365Z,31.90
2019-04-10T01:22:06.915Z,32.10
2019-04-10T01:24:37.672Z,32.80
2019-04-10T01:27:09.769Z,32.90
2019-04-10T01:29:40.438Z,33.18
2019-04-10T01:32:12.003Z,33.70
2019-04-10T01:34:43.356Z,33.80
2019-04-10T01:37:13.987Z,33.75
2019-04-10T01:39:45.045Z,33.53
2019-04-10T01:42:16.556Z,33.83
2019-04-10T01:44:47.144Z,32.98
2019-04-10T01:47:17.690Z,34.40
2019-04-10T01:49:48.960Z,33.20
2019-04-10T01:52:22.686Z,33.23
2019-04-10T01:54:53.440Z,33.53
2019-04-10T01:57:24.103Z,34.20
2019-04-10T01:59:56.439Z,34.90
2019-04-10T02:02:55.994Z,35.07
2019-04-10T02:05:26.571Z,34.58
2019-04-10T02:08:03.191Z,35.05
2019-04-10T02:10:34.258Z,34.48
2019-04-10T02:13:05.376Z,35.77
2019-04-10T02:15:36.342Z,36.33
2019-04-10T02:18:07.011Z,37.50
2019-04-10T02:20:47.348Z,34.78
2019-04-10T02:23:19.188Z,35.30
2019-04-10T02:25:49.843Z,35.83
2019-04-10T02:28:20.992Z,38.63
2019-04-10T02:30:51.880Z,36.63
2019-04-10T02:33:23.270Z,36.50
2019-04-10T02:35:54.873Z,36.53
2019-04-10T02:38:40.072Z,36.08
2019-04-10T02:40:58.121Z,36.38
2019-04-10T02:43:29.309Z,36.60
2019-04-10T02:46:00.538Z,35.70
2019-04-10T02:48:33.773Z,35.35
2019-04-10T02:51:05.529Z,37.05
2019-04-10T02:53:37.437Z,37.08
2019-04-10T02:56:08.216Z,35.90
2019-04-10T02:58:40.267Z,36.08
2019-04-10T03:01:13.444Z,34.92
2019-04-10T03:03:44.713Z,36.40
2019-04-10T03:06:15.719Z,35.73
2019-04-10T03:09:05.951Z,35.98
2019-04-10T03:11:20.145Z,35.63
2019-04-10T03:13:53.484Z,37.88
2019-04-10T03:16:24.308Z,59.60
2019-04-10T03:18:55.133Z,40.57
2019-04-10T03:21:25.634Z,45.10
2019-04-10T03:23:56.287Z,51.50
2019-04-10T03:26:27.900Z,48.23
2019-04-10T03:28:58.444Z,45.08
2019-04-10T03:31:30.078Z,52.00
2019-04-10T03:34:21.804Z,43.75
2019-04-10T03:36:53.800Z,39.85
2019-04-10T03:39:24.349Z,40.73
2019-04-10T03:41:54.812Z,40.63
2019-04-10T03:44:25.534Z,37.42
2019-04-10T03:46:56.307Z,38.43
2019-04-10T03:49:27.831Z,43.25
2019-04-10T03:51:58.886Z,40.70
2019-04-10T03:54:30.144Z,45.58
2019-04-10T03:57:01.064Z,51.33
2019-04-10T03:59:32.646Z,55.92
2019-04-10T04:02:03.598Z,40.12
2019-04-10T04:04:34.126Z,40.10
2019-04-10T04:07:25.969Z,38.23
2019-04-10T04:09:56.242Z,39.17
2019-04-10T04:12:26.832Z,40.88
2019-04-10T04:14:57.596Z,40.03
2019-04-10T04:17:28.380Z,40.73
2019-04-10T04:19:59.702Z,40.57
2019-04-10T04:22:30.599Z,40.58
2019-04-10T04:25:01.853Z,41.10
2019-04-10T04:27:33.509Z,42.07
2019-04-10T04:30:06.297Z,42.35
2019-04-10T04:32:37.948Z,42.45
2019-04-10T04:35:09.111Z,40.75
2019-04-10T04:37:39.836Z,39.78
2019-04-10T04:40:11.119Z,41.80
2019-04-10T04:42:42.526Z,42.30
2019-04-10T04:45:13.996Z,42.43
2019-04-10T04:47:45.217Z,43.28
2019-04-10T04:50:15.739Z,50.38
2019-04-10T04:52:52.035Z,45.03
2019-04-10T04:55:22.597Z,43.33
2019-04-10T04:57:53.586Z,43.85
2019-04-10T05:00:24.342Z,43.38
2019-04-10T05:02:55.830Z,42.98
2019-04-10T05:05:27.150Z,41.67
2019-04-10T05:08:01.978Z,42.48
2019-04-10T05:10:33.929Z,42.60
2019-04-10T05:13:06.145Z,42.03
2019-04-10T05:15:37.387Z,42.98
2019-04-10T05:18:08.094Z,43.55
2019-04-10T05:20:47.217Z,42.65
2019-04-10T05:23:26.585Z,42.73
2019-04-10T05:25:58.994Z,42.25
2019-04-10T05:28:50.729Z,42.78
2019-04-10T05:31:25.603Z,43.57
2019-04-10T05:33:57.433Z,46.23
2019-04-10T05:36:35.883Z,44.10
2019-04-10T05:39:08.557Z,45.58
2019-04-10T05:41:40.262Z,44.20
2019-04-10T05:44:11.642Z,44.90
2019-04-10T05:46:42.953Z,43.33
2019-04-10T05:49:14.958Z,43.63
2019-04-10T05:51:45.737Z,45.52
2019-04-10T05:54:17.136Z,44.27
2019-04-10T05:56:50.338Z,45.08
2019-04-10T05:59:21.812Z,46.92
2019-04-10T06:01:52.818Z,43.92
2019-04-10T06:04:25.306Z,44.60
2019-04-10T06:06:56.837Z,46.15
2019-04-10T06:09:27.451Z,45.58
2019-04-10T06:11:58.577Z,45.27
2019-04-10T06:14:30.400Z,44.35
2019-04-10T06:17:04.030Z,45.30
2019-04-10T06:19:34.456Z,45.98
2019-04-10T06:22:05.293Z,45.48
2019-04-10T06:24:36.418Z,46.43
2019-04-10T06:27:08.211Z,46.30
2019-04-10T06:29:39.402Z,45.78
2019-04-10T06:32:11.456Z,46.10
2019-04-10T06:34:42.609Z,47.25
2019-04-10T06:37:13.619Z,47.43
2019-04-10T06:39:45.993Z,46.83
2019-04-10T06:42:17.538Z,47.13
2019-04-10T06:44:48.371Z,47.65
2019-04-10T06:47:20.256Z,46.98
2019-04-10T06:49:51.356Z,45.63
2019-04-10T06:52:23.625Z,48.00
2019-04-10T06:54:55.405Z,46.15
2019-04-10T06:57:26.978Z,47.53
2019-04-10T06:59:59.785Z,47.95
2019-04-10T07:02:32.598Z,47.67
2019-04-10T07:05:07.424Z,48.08
2019-04-10T07:07:47.512Z,47.43
2019-04-10T07:10:20.593Z,46.60
2019-04-10T07:12:41.719Z,46.53
2019-04-10T07:15:13.016Z,47.62
2019-04-10T07:17:43.726Z,47.60
2019-04-10T07:20:18.385Z,47.58
2019-04-10T07:22:48.623Z,48.13
2019-04-10T07:25:21.709Z,49.23
2019-04-10T07:27:52.560Z,47.88
2019-04-10T07:30:26.069Z,47.43
2019-04-10T07:32:59.782Z,48.40
2019-04-10T07:35:42.228Z,47.50
2019-04-10T07:38:21.317Z,48.73
2019-04-10T07:40:54.614Z,48.30
2019-04-10T07:43:27.426Z,48.33
2019-04-10T07:45:57.618Z,47.37
2019-04-10T07:48:29.349Z,46.35
2019-04-10T07:51:00.624Z,47.30
2019-04-10T07:53:33.192Z,47.23
2019-04-10T07:56:09.038Z,47.33
2019-04-10T07:58:37.745Z,47.90
2019-04-10T08:01:10.235Z,47.23
2019-04-10T08:03:41.676Z,46.02
2019-04-10T08:06:13.198Z,47.67
2019-04-10T08:08:44.814Z,46.65
2019-04-10T08:11:15.831Z,47.15
2019-04-10T08:13:47.099Z,46.05
2019-04-10T08:16:17.683Z,47.03
2019-04-10T08:18:49.810Z,46.68
2019-04-10T08:21:21.768Z,45.43
2019-04-10T08:23:53.038Z,47.33
2019-04-10T08:26:24.727Z,47.23
2019-04-10T08:28:55.398Z,46.05
2019-04-10T08:31:26.108Z,46.10
2019-04-10T08:33:58.910Z,47.00
2019-04-10T08:36:29.732Z,46.30
2019-04-10T08:39:02.325Z,47.17
2019-04-10T08:41:35.191Z,47.75
2019-04-10T08:44:06.520Z,46.50
2019-04-10T08:46:37.800Z,47.47
2019-04-10T08:49:08.299Z,45.67
2019-04-10T08:51:39.446Z,46.80
2019-04-10T08:54:10.232Z,54.13
2019-04-10T08:56:42.825Z,47.10
2019-04-10T08:59:13.828Z,45.53
2019-04-10T09:01:45.225Z,46.00
2019-04-10T09:04:16.274Z,46.15
2019-04-10T09:06:47.389Z,47.35
2019-04-10T09:09:18.317Z,48.95
2019-04-10T09:11:49.478Z,43.42
2019-04-10T09:14:21.064Z,42.03
2019-04-10T09:16:53.026Z,43.52
2019-04-10T09:19:24.015Z,42.93
2019-04-10T09:21:55.432Z,42.17
2019-04-10T09:24:26.079Z,42.60
2019-04-10T09:26:57.877Z,42.67
2019-04-10T09:29:29.842Z,43.90
2019-04-10T09:32:02.334Z,45.05
2019-04-10T09:34:34.050Z,44.05
2019-04-10T09:37:04.680Z,44.40
2019-04-10T09:39:35.979Z,42.95
2019-04-10T09:42:17.737Z,43.70
2019-04-10T09:44:58.315Z,45.38
2019-04-10T09:47:32.533Z,45.40
2019-04-10T09:50:03.433Z,45.12
2019-04-10T09:52:33.970Z,44.60
2019-04-10T09:55:07.532Z,44.38
2019-04-10T09:57:38.826Z,43.92
2019-04-10T10:00:10.604Z,44.98
2019-04-10T10:02:43.222Z,44.80
2019-04-10T10:05:15.147Z,45.52
2019-04-10T10:07:47.116Z,44.67
2019-04-10T10:10:20.670Z,45.60
2019-04-10T10:12:52.677Z,46.27
2019-04-10T10:15:25.272Z,44.58
2019-04-10T10:17:57.145Z,44.35
2019-04-10T10:20:29.673Z,44.95
2019-04-10T10:23:03.293Z,45.38
2019-04-10T10:25:35.328Z,45.63
2019-04-10T10:28:06.978Z,45.80
2019-04-10T10:30:37.880Z,46.68
2019-04-10T10:33:09.846Z,46.30
2019-04-10T10:35:41.115Z,44.80
2019-04-10T10:38:12.929Z,44.13
2019-04-10T10:40:44.063Z,44.60
2019-04-10T10:43:14.679Z,46.00
2019-04-10T10:45:51.188Z,46.42
2019-04-10T10:48:25.055Z,47.50
2019-04-10T10:50:56.267Z,45.30
2019-04-10T10:53:26.968Z,45.98
2019-04-10T10:55:58.006Z,46.77
2019-04-10T10:58:30.262Z,44.63
2019-04-10T11:01:03.545Z,46.35
2019-04-10T11:03:40.556Z,46.93
2019-04-10T11:06:14.959Z,46.55
2019-04-10T11:08:47.775Z,47.13
2019-04-10T11:11:20.057Z,45.85
2019-04-10T11:13:52.539Z,45.85
2019-04-10T11:16:29.301Z,45.03
2019-04-10T11:19:07.113Z,44.25
2019-04-10T11:21:38.955Z,45.37
2019-04-10T11:24:11.075Z,48.05
2019-04-10T11:26:46.185Z,44.53
2019-04-10T11:29:17.688Z,45.70
2019-04-10T11:31:49.254Z,45.63
2019-04-10T11:34:29.301Z,44.17
2019-04-10T11:37:23.489Z,47.78
2019-04-10T11:39:50.127Z,45.08
2019-04-10T11:42:21.508Z,46.77
2019-04-10T11:44:54.449Z,48.08
2019-04-10T11:47:26.800Z,46.70
2019-04-10T11:50:01.614Z,48.58
2019-04-10T11:52:39.532Z,49.25
2019-04-10T11:55:13.821Z,47.62
2019-04-10T11:57:47.189Z,47.70
2019-04-10T12:00:23.735Z,45.38
2019-04-10T12:03:00.671Z,47.23
2019-04-10T12:05:31.795Z,46.07
2019-04-10T12:13:08.107Z,47.15
2019-04-10T12:15:38.785Z,47.55
2019-04-10T12:18:12.242Z,48.73
2019-04-10T12:20:47.613Z,47.95
2019-04-10T12:23:21.640Z,48.73
2019-04-10T12:25:53.465Z,50.50
2019-04-10T12:28:27.728Z,51.85
2019-04-10T12:30:59.486Z,52.40
2019-04-10T12:33:30.265Z,51.68
2019-04-10T12:36:02.380Z,51.55
2019-04-10T12:38:35.928Z,52.23
2019-04-10T12:41:07.220Z,50.52
2019-04-10T12:43:40.994Z,53.33
2019-04-10T12:46:11.239Z,52.20
2019-04-10T12:48:42.999Z,52.67
2019-04-10T12:51:15.249Z,51.50
2019-04-10T12:53:47.693Z,50.65
2019-04-10T12:56:18.962Z,51.90
2019-04-10T12:58:50.967Z,54.27
2019-04-10T13:01:24.685Z,56.00
2019-04-10T13:03:57.757Z,54.18
2019-04-10T13:06:29.661Z,50.95
2019-04-10T13:12:41.762Z,50.30
2019-04-10T13:15:13.110Z,51.77
2019-04-10T13:18:03.844Z,52.40
2019-04-10T13:20:34.086Z,52.50
2019-04-10T13:23:35.490Z,50.80
2019-04-10T13:26:13.483Z,49.43
2019-04-10T13:28:51.832Z,51.00
2019-04-10T13:31:25.583Z,48.27
2019-04-10T13:33:57.238Z,47.13
2019-04-10T13:36:29.388Z,48.17
2019-04-10T13:39:02.436Z,48.87
2019-04-10T13:41:34.759Z,49.42
2019-04-10T13:44:06.607Z,52.87
2019-04-10T13:46:38.752Z,55.90
2019-04-10T13:49:11.982Z,52.73
2019-04-10T13:51:43.591Z,52.87
2019-04-10T13:54:16.047Z,53.83
2019-04-10T13:56:47.955Z,55.17
2019-04-10T13:59:20.685Z,55.73
2019-04-10T14:01:54.687Z,55.53
2019-04-10T14:04:29.163Z,53.70
2019-04-10T14:07:02.477Z,52.50
2019-04-10T14:09:43.275Z,54.33
2019-04-10T14:12:08.296Z,51.83
2019-04-10T14:15:01.396Z,52.40
2019-04-10T14:17:50.020Z,49.63
2019-04-10T14:20:29.144Z,52.47
2019-04-10T14:23:08.331Z,52.20
2019-04-10T14:26:06.413Z,51.00
2019-04-10T14:28:37.565Z,52.30
2019-04-10T14:31:25.258Z,51.23
2019-04-10T14:33:56.506Z,52.73
2019-04-10T14:36:31.864Z,53.35
2019-04-10T14:39:19.326Z,52.47
2019-04-10T14:41:54.123Z,53.40
2019-04-10T14:44:25.444Z,55.30
2019-04-10T14:46:58.111Z,55.83
2019-04-10T14:49:33.357Z,51.77
2019-04-10T14:52:05.144Z,55.93
2019-04-10T14:54:37.591Z,54.97
2019-04-10T14:57:10.615Z,57.05
2019-04-10T14:59:46.255Z,56.57
2019-04-10T15:02:17.388Z,56.53
2019-04-10T15:04:51.278Z,55.58
2019-04-10T15:07:22.261Z,58.67
2019-04-10T15:09:55.163Z,61.63
2019-04-10T15:12:26.749Z,56.53
2019-04-10T15:14:58.026Z,57.47
2019-04-10T15:17:33.955Z,55.73
2019-04-10T15:20:11.234Z,57.63
2019-04-10T15:22:42.625Z,57.00
2019-04-10T15:25:14.965Z,59.10
2019-04-10T15:27:53.866Z,60.13
2019-04-10T15:30:24.551Z,58.60
2019-04-10T15:32:56.661Z,59.87
2019-04-10T15:35:32.939Z,61.13
2019-04-10T15:38:04.385Z,60.13
2019-04-10T15:40:42.239Z,60.03
2019-04-10T15:43:13.203Z,60.37
2019-04-10T15:45:44.518Z,59.33
2019-04-10T15:48:18.779Z,61.40
2019-04-10T15:50:51.729Z,59.87
2019-04-10T15:53:24.325Z,62.10
2019-04-10T15:58:52.583Z,56.57
2019-04-10T16:01:26.963Z,56.57
2019-04-10T16:03:59.228Z,57.00
2019-04-10T16:06:38.128Z,55.23
2019-04-10T16:09:09.599Z,55.13
2019-04-10T16:11:50.802Z,64.53
2019-04-10T16:14:25.385Z,59.27
2019-04-10T16:17:04.742Z,60.77
2019-04-10T16:19:45.056Z,62.50
2019-04-10T16:22:35.306Z,61.23
2019-04-10T16:25:29.779Z,61.18
2019-04-10T16:28:06.322Z,60.47
2019-04-10T16:30:37.392Z,59.90
2019-04-10T16:33:14.833Z,60.13
2019-04-10T16:35:48.583Z,62.73
2019-04-10T16:38:20.551Z,61.28
2019-04-10T16:41:00.785Z,60.63
2019-04-10T16:43:32.748Z,60.98
2019-04-10T16:46:04.921Z,59.30
2019-04-10T16:48:40.011Z,60.03
2019-04-10T16:51:12.042Z,60.70
2019-04-10T16:53:45.501Z,59.53
2019-04-10T16:56:40.185Z,61.67
2019-04-10T16:59:16.401Z,59.87
2019-04-10T17:01:47.879Z,60.15
2019-04-10T17:04:27.807Z,62.85
2019-04-10T17:06:59.393Z,60.07
2019-04-10T17:09:30.191Z,58.23
2019-04-10T17:12:01.369Z,59.40
2019-04-10T17:14:33.239Z,55.90
2019-04-10T17:17:06.213Z,56.25
2019-04-10T17:19:49.113Z,57.27
2019-04-10T17:22:14.476Z,56.13
2019-04-10T17:24:45.738Z,55.80
2019-04-10T17:27:16.729Z,56.47
2019-04-10T17:29:49.426Z,54.95
2019-04-10T17:32:21.417Z,55.30
2019-04-10T17:34:58.959Z,55.17
2019-04-10T17:37:29.855Z,56.37
2019-04-10T17:40:08.265Z,56.47
2019-04-10T17:42:40.890Z,54.97
2019-04-10T17:45:25.641Z,55.33
2019-04-10T17:48:01.062Z,54.97
2019-04-10T17:50:41.367Z,54.47
2019-04-10T17:53:16.713Z,55.40
2019-04-10T17:55:47.973Z,56.13
2019-04-10T17:58:21.275Z,53.83
2019-04-10T18:00:57.618Z,53.20
2019-04-10T18:03:44.845Z,54.57
2019-04-10T18:06:10.934Z,71.07
2019-04-10T18:08:47.188Z,55.23
2019-04-10T18:11:20.314Z,53.80
2019-04-10T18:13:55.243Z,55.33
2019-04-10T18:16:29.925Z,53.95
2019-04-10T18:19:02.297Z,55.77
2019-04-10T18:21:35.025Z,55.83
2019-04-10T18:24:08.137Z,55.27
2019-04-10T18:26:39.536Z,55.85
2019-04-10T18:29:11.007Z,56.10
2019-04-10T18:31:43.207Z,55.23
2019-04-10T18:34:15.968Z,55.47
2019-04-10T18:36:49.611Z,56.50
2019-04-10T18:39:21.925Z,57.70
2019-04-10T18:41:53.895Z,58.03
2019-04-10T18:44:25.759Z,57.53
2019-04-10T18:46:57.668Z,58.37
2019-04-10T18:49:31.716Z,58.43
2019-04-10T18:52:03.330Z,57.53
2019-04-10T18:54:35.938Z,60.60
2019-04-10T18:57:09.396Z,60.77
2019-04-10T18:59:58.860Z,58.05
2019-04-10T19:03:05.373Z,57.73
2019-04-10T19:05:41.149Z,58.08
2019-04-10T19:08:16.888Z,57.45
2019-04-10T19:10:48.385Z,58.97
2019-04-10T19:13:19.418Z,57.05
2019-04-10T19:15:50.605Z,57.00
2019-04-10T19:18:21.863Z,58.10
2019-04-10T19:20:53.186Z,57.17
2019-04-10T19:23:25.502Z,57.55
2019-04-10T19:25:58.867Z,59.17
2019-04-10T19:28:35.045Z,56.60
2019-04-10T19:31:13.513Z,57.17
2019-04-10T19:33:43.554Z,56.33
2019-04-10T19:36:17.552Z,57.10
2019-04-10T19:38:49.620Z,56.25
2019-04-10T19:41:29.705Z,56.28
2019-04-10T19:44:02.507Z,55.77
2019-04-10T19:46:37.716Z,55.97
2019-04-10T19:49:12.253Z,55.30
2019-04-10T19:51:50.934Z,57.40
2019-04-10T19:54:22.198Z,55.30
2019-04-10T19:56:57.038Z,56.63
2019-04-10T19:59:27.966Z,57.45
2019-04-10T20:01:58.862Z,56.92
2019-04-10T20:04:30.438Z,56.80
2019-04-10T20:07:01.359Z,56.50
2019-04-10T20:09:32.706Z,56.70
2019-04-10T20:12:07.062Z,55.95
2019-04-10T20:14:39.156Z,56.70
2019-04-10T20:17:11.409Z,55.95
2019-04-10T20:19:43.487Z,55.53
2019-04-10T20:22:14.998Z,54.85
2019-04-10T20:24:47.132Z,55.47
2019-04-10T20:27:18.767Z,56.93
2019-04-10T20:29:51.038Z,54.73
2019-04-10T20:32:22.843Z,58.70
2019-04-10T20:34:53.944Z,58.17
2019-04-10T20:37:24.845Z,56.13
2019-04-10T20:39:55.973Z,54.97
2019-04-10T20:42:27.221Z,56.98
2019-04-10T20:44:58.930Z,58.83
2019-04-10T20:47:35.069Z,56.60
2019-04-10T20:50:06.481Z,55.93
2019-04-10T20:52:40.541Z,56.23
2019-04-10T20:55:11.260Z,57.23
2019-04-10T20:57:43.699Z,58.10
2019-04-10T21:00:27.717Z,56.73
2019-04-10T21:03:43.208Z,55.93
2019-04-10T21:06:15.510Z,57.57
2019-04-10T21:08:46.719Z,59.60
2019-04-10T21:11:20.366Z,57.43
2019-04-10T21:13:51.319Z,56.97
2019-04-10T21:16:23.163Z,56.47
2019-04-10T21:18:54.418Z,56.73
2019-04-10T21:21:26.391Z,57.37
2019-04-10T21:23:57.231Z,58.07
2019-04-10T21:26:28.893Z,56.90
2019-04-10T21:29:00.331Z,56.67
2019-04-10T21:31:52.564Z,56.73
2019-04-10T21:34:32.460Z,57.47
2019-04-10T21:37:06.101Z,58.33
2019-04-10T21:39:38.162Z,58.30
2019-04-10T21:42:18.195Z,57.27
2019-04-10T21:44:42.861Z,56.90
2019-04-10T21:47:14.184Z,57.60
2019-04-10T21:49:46.336Z,58.15
2019-04-10T21:52:18.556Z,57.60
2019-04-10T21:54:54.566Z,59.07
2019-04-10T21:57:24.376Z,59.77
2019-04-10T21:59:57.184Z,58.13
2019-04-10T22:02:29.437Z,58.00
2019-04-10T22:05:01.120Z,58.63
2019-04-10T22:07:50.714Z,59.07
2019-04-10T22:10:32.293Z,61.40
2019-04-10T22:13:03.783Z,62.10
2019-04-10T22:15:43.221Z,61.35
2019-04-10T22:18:14.881Z,60.77
2019-04-10T22:20:45.828Z,61.27
2019-04-10T22:23:18.093Z,60.73
2019-04-10T22:25:50.112Z,60.00
2019-04-10T22:28:21.323Z,63.13
2019-04-10T22:30:52.674Z,59.83
2019-04-10T22:33:24.403Z,59.90
2019-04-10T22:35:55.992Z,61.40
2019-04-10T22:38:27.288Z,61.10
2019-04-10T22:40:58.211Z,62.13
2019-04-10T22:43:30.126Z,63.93
2019-04-10T22:46:02.585Z,63.23
2019-04-10T22:48:33.529Z,64.40
2019-04-10T22:51:04.316Z,62.50
2019-04-10T22:53:35.622Z,62.78
2019-04-10T22:56:06.965Z,62.95
2019-04-10T22:58:39.243Z,60.43
2019-04-10T23:01:13.032Z,60.33
2019-04-10T23:03:45.315Z,61.88
2019-04-10T23:06:17.364Z,61.92
2019-04-10T23:08:48.022Z,63.87
2019-04-10T23:11:30.462Z,65.73
2019-04-10T23:13:51.728Z,66.20
2019-04-10T23:16:24.092Z,67.57
2019-04-10T23:18:56.006Z,65.32
2019-04-10T23:21:28.275Z,64.30
2019-04-10T23:23:59.572Z,66.73
2019-04-10T23:26:31.212Z,65.20
2019-04-10T23:29:02.164Z,64.30
2019-04-10T23:31:34.029Z,66.77
2019-04-10T23:34:06.218Z,66.03
2019-04-10T23:36:40.313Z,65.90
2019-04-10T23:39:12.159Z,67.23
2019-04-10T23:41:43.271Z,67.27
2019-04-10T23:44:14.464Z,67.50
2019-04-10T23:46:45.656Z,66.57
2019-04-10T23:49:17.354Z,70.10
2019-04-10T23:51:49.721Z,67.60
2019-04-10T23:54:21.758Z,65.13
2019-04-10T23:56:52.899Z,65.03
2019-04-10T23:59:23.848Z,63.98
